sensor_id;sensor_type;location;lat;lon;timestamp;pressure;altitude;pressure_sealevel;temperature;humidity
50672;BME280;46021;55.882;37.654;2023-03-03T00:01:18;98117.19;;;-2.23;77.55
50672;BME280;46021;55.882;37.654;2023-03-03T00:03:45;98112.13;;;-2.33;78.22
50672;BME280;46021;55.882;37.654;2023-03-03T00:06:13;98110.41;;;-2.31;78.58
50672;BME280;46021;55.882;37.654;2023-03-03T00:08:40;98107.84;;;-2.31;79.20
50672;BME280;46021;55.882;37.654;2023-03-03T00:11:07;98100.25;;;-2.36;79.19
50672;BME280;46021;55.882;37.654;2023-03-03T00:13:43;98101.13;;;-2.42;79.56
50672;BME280;46021;55.882;37.654;2023-03-03T00:16:16;98093.44;;;-2.39;79.33
50672;BME280;46021;55.882;37.654;2023-03-03T00:18:47;98090.91;;;-2.42;79.27
50672;BME280;46021;55.882;37.654;2023-03-03T00:21:22;98087.44;;;-2.35;78.72
50672;BME280;46021;55.882;37.654;2023-03-03T00:23:51;98084.06;;;-2.33;79.19
50672;BME280;46021;55.882;37.654;2023-03-03T00:26:21;98074.69;;;-2.35;79.00
50672;BME280;46021;55.882;37.654;2023-03-03T00:28:51;98081.50;;;-2.32;79.33
50672;BME280;46021;55.882;37.654;2023-03-03T00:31:22;98073.84;;;-2.33;78.72
50672;BME280;46021;55.882;37.654;2023-03-03T00:33:53;98067.03;;;-2.28;79.34
50672;BME280;46021;55.882;37.654;2023-03-03T00:36:26;98061.88;;;-2.25;79.08
50672;BME280;46021;55.882;37.654;2023-03-03T00:38:59;98056.88;;;-2.36;79.98
50672;BME280;46021;55.882;37.654;2023-03-03T00:41:38;98051.72;;;-2.31;79.50
50672;BME280;46021;55.882;37.654;2023-03-03T00:44:31;98052.56;;;-2.29;79.77
50672;BME280;46021;55.882;37.654;2023-03-03T00:47:02;98049.16;;;-2.28;79.48
50672;BME280;46021;55.882;37.654;2023-03-03T00:49:38;98047.41;;;-2.23;79.92
50672;BME280;46021;55.882;37.654;2023-03-03T00:52:11;98038.91;;;-2.22;79.48
50672;BME280;46021;55.882;37.654;2023-03-03T00:54:39;98047.38;;;-2.22;79.59
50672;BME280;46021;55.882;37.654;2023-03-03T00:57:06;98040.56;;;-2.15;79.16
50672;BME280;46021;55.882;37.654;2023-03-03T00:59:36;98030.28;;;-2.12;79.41
50672;BME280;46021;55.882;37.654;2023-03-03T01:02:04;98038.84;;;-2.16;80.22
50672;BME280;46021;55.882;37.654;2023-03-03T01:04:31;98033.69;;;-2.08;79.63
50672;BME280;46021;55.882;37.654;2023-03-03T01:06:58;98010.84;;;-2.25;80.13
50672;BME280;46021;55.882;37.654;2023-03-03T01:09:25;98026.03;;;-2.10;79.98
50672;BME280;46021;55.882;37.654;2023-03-03T01:11:53;98026.00;;;-2.07;79.66
50672;BME280;46021;55.882;37.654;2023-03-03T01:14:20;98026.78;;;-1.97;79.74
50672;BME280;46021;55.882;37.654;2023-03-03T01:16:49;98019.13;;;-1.96;79.78
50672;BME280;46021;55.882;37.654;2023-03-03T01:19:17;98021.66;;;-1.92;79.72
50672;BME280;46021;55.882;37.654;2023-03-03T01:21:44;98015.72;;;-1.94;79.79
50672;BME280;46021;55.882;37.654;2023-03-03T01:24:11;98026.88;;;-2.08;80.79
50672;BME280;46021;55.882;37.654;2023-03-03T01:26:38;98017.50;;;-2.07;80.92
50672;BME280;46021;55.882;37.654;2023-03-03T01:29:05;98015.78;;;-2.04;80.60
50672;BME280;46021;55.882;37.654;2023-03-03T01:31:32;98014.06;;;-2.05;80.94
50672;BME280;46021;55.882;37.654;2023-03-03T01:34:00;98019.19;;;-2.03;80.76
50672;BME280;46021;55.882;37.654;2023-03-03T01:36:28;98016.63;;;-2.06;81.11
50672;BME280;46021;55.882;37.654;2023-03-03T01:38:55;98004.69;;;-2.00;80.70
50672;BME280;46021;55.882;37.654;2023-03-03T01:41:26;98014.91;;;-2.04;81.30
50672;BME280;46021;55.882;37.654;2023-03-03T01:43:53;98004.75;;;-2.06;81.79
50672;BME280;46021;55.882;37.654;2023-03-03T01:46:45;98002.97;;;-2.01;81.45
50672;BME280;46021;55.882;37.654;2023-03-03T01:49:18;98004.75;;;-2.10;81.71
50672;BME280;46021;55.882;37.654;2023-03-03T01:51:50;97997.00;;;-1.98;81.54
50672;BME280;46021;55.882;37.654;2023-03-03T01:54:24;98003.91;;;-2.08;82.34
50672;BME280;46021;55.882;37.654;2023-03-03T01:56:55;97995.31;;;-2.01;81.59
50672;BME280;46021;55.882;37.654;2023-03-03T01:59:27;97992.00;;;-2.12;81.92
50672;BME280;46021;55.882;37.654;2023-03-03T02:01:55;97978.34;;;-2.05;81.75
50672;BME280;46021;55.882;37.654;2023-03-03T02:04:25;97983.38;;;-1.99;81.19
50672;BME280;46021;55.882;37.654;2023-03-03T02:06:55;97981.69;;;-1.97;81.51
50672;BME280;46021;55.882;37.654;2023-03-03T02:09:28;97985.03;;;-1.91;81.44
50672;BME280;46021;55.882;37.654;2023-03-03T02:12:01;97985.81;;;-1.83;80.62
50672;BME280;46021;55.882;37.654;2023-03-03T02:14:29;97982.47;;;-1.90;81.00
50672;BME280;46021;55.882;37.654;2023-03-03T02:16:56;97978.19;;;-1.86;81.08
50672;BME280;46021;55.882;37.654;2023-03-03T02:19:32;97973.06;;;-1.85;80.77
50672;BME280;46021;55.882;37.654;2023-03-03T02:22:01;97967.16;;;-1.91;81.15
50672;BME280;46021;55.882;37.654;2023-03-03T02:24:30;97948.38;;;-1.87;81.03
50672;BME280;46021;55.882;37.654;2023-03-03T02:27:01;97944.97;;;-1.83;80.59
50672;BME280;46021;55.882;37.654;2023-03-03T02:29:29;97945.88;;;-1.93;80.85
50672;BME280;46021;55.882;37.654;2023-03-03T02:31:56;97949.25;;;-1.88;81.05
50672;BME280;46021;55.882;37.654;2023-03-03T02:34:23;97950.91;;;-1.84;80.75
50672;BME280;46021;55.882;37.654;2023-03-03T02:36:51;97941.53;;;-1.82;80.45
50672;BME280;46021;55.882;37.654;2023-03-03T02:39:19;97954.31;;;-1.85;80.70
50672;BME280;46021;55.882;37.654;2023-03-03T02:41:50;97933.94;;;-1.90;80.92
50672;BME280;46021;55.882;37.654;2023-03-03T02:44:23;97946.69;;;-1.88;81.19
50672;BME280;46021;55.882;37.654;2023-03-03T02:46:52;97932.22;;;-1.89;81.03
50672;BME280;46021;55.882;37.654;2023-03-03T02:49:22;97941.50;;;-1.81;80.83
50672;BME280;46021;55.882;37.654;2023-03-03T02:51:49;97938.94;;;-1.78;80.93
50672;BME280;46021;55.882;37.654;2023-03-03T02:54:18;97945.78;;;-1.83;80.79
50672;BME280;46021;55.882;37.654;2023-03-03T02:56:47;97945.72;;;-1.78;81.02
50672;BME280;46021;55.882;37.654;2023-03-03T02:59:14;97937.22;;;-1.77;80.66
50672;BME280;46021;55.882;37.654;2023-03-03T03:01:47;97929.66;;;-1.85;81.05
50672;BME280;46021;55.882;37.654;2023-03-03T03:04:18;97935.50;;;-1.78;80.75
50672;BME280;46021;55.882;37.654;2023-03-03T03:06:49;97937.25;;;-1.80;80.98
50672;BME280;46021;55.882;37.654;2023-03-03T03:09:18;97935.50;;;-1.75;80.79
50672;BME280;46021;55.882;37.654;2023-03-03T03:11:47;97940.59;;;-1.72;80.71
50672;BME280;46021;55.882;37.654;2023-03-03T03:14:17;97930.31;;;-1.69;80.38
50672;BME280;46021;55.882;37.654;2023-03-03T03:16:45;97933.75;;;-1.73;79.75
50672;BME280;46021;55.882;37.654;2023-03-03T03:19:13;97931.94;;;-1.63;79.94
50672;BME280;46021;55.882;37.654;2023-03-03T03:21:42;97941.31;;;-1.61;80.31
50672;BME280;46021;55.882;37.654;2023-03-03T03:24:10;97924.28;;;-1.63;79.94
50672;BME280;46021;55.882;37.654;2023-03-03T03:26:41;97932.03;;;-1.68;80.50
50672;BME280;46021;55.882;37.654;2023-03-03T03:29:09;97926.84;;;-1.63;80.37
50672;BME280;46021;55.882;37.654;2023-03-03T03:31:36;97926.81;;;-1.59;79.77
50672;BME280;46021;55.882;37.654;2023-03-03T03:34:04;97920.00;;;-1.63;80.03
50672;BME280;46021;55.882;37.654;2023-03-03T03:36:32;97926.84;;;-1.65;80.43
50672;BME280;46021;55.882;37.654;2023-03-03T03:39:00;97923.47;;;-1.67;80.60
50672;BME280;46021;55.882;37.654;2023-03-03T03:41:32;97913.31;;;-1.70;80.61
50672;BME280;46021;55.882;37.654;2023-03-03T03:43:59;97920.16;;;-1.72;80.81
50672;BME280;46021;55.882;37.654;2023-03-03T03:46:26;97916.78;;;-1.75;81.31
50672;BME280;46021;55.882;37.654;2023-03-03T03:48:54;97906.53;;;-1.74;81.24
50672;BME280;46021;55.882;37.654;2023-03-03T03:51:21;97910.78;;;-1.74;80.87
50672;BME280;46021;55.882;37.654;2023-03-03T03:53:50;97910.78;;;-1.74;81.64
50672;BME280;46021;55.882;37.654;2023-03-03T03:56:17;97909.06;;;-1.74;81.23
50672;BME280;46021;55.882;37.654;2023-03-03T03:58:47;97901.38;;;-1.71;81.20
50672;BME280;46021;55.882;37.654;2023-03-03T04:01:14;97901.41;;;-1.74;81.37
50672;BME280;46021;55.882;37.654;2023-03-03T04:03:46;97892.09;;;-1.80;81.58
50672;BME280;46021;55.882;37.654;2023-03-03T04:06:17;97887.91;;;-1.85;81.71
50672;BME280;46021;55.882;37.654;2023-03-03T04:08:45;97892.09;;;-1.80;81.69
50672;BME280;46021;55.882;37.654;2023-03-03T04:11:14;97887.88;;;-1.82;82.14
50672;BME280;46021;55.882;37.654;2023-03-03T04:13:41;97887.88;;;-1.79;81.99
50672;BME280;46021;55.882;37.654;2023-03-03T04:16:09;97893.88;;;-1.83;82.06
50672;BME280;46021;55.882;37.654;2023-03-03T04:18:39;97882.75;;;-1.78;81.24
50672;BME280;46021;55.882;37.654;2023-03-03T04:21:10;97893.81;;;-1.80;82.16
50672;BME280;46021;55.882;37.654;2023-03-03T04:23:38;97894.75;;;-1.87;82.71
50672;BME280;46021;55.882;37.654;2023-03-03T04:26:06;97893.03;;;-1.85;82.71
50672;BME280;46021;55.882;37.654;2023-03-03T04:28:35;97885.50;;;-1.98;83.35
50672;BME280;46021;55.882;37.654;2023-03-03T04:31:02;97883.78;;;-1.96;83.34
50672;BME280;46021;55.882;37.654;2023-03-03T04:33:31;97880.28;;;-1.87;82.79
50672;BME280;46021;55.882;37.654;2023-03-03T04:36:00;97881.22;;;-1.92;83.50
50672;BME280;46021;55.882;37.654;2023-03-03T04:38:27;97882.06;;;-1.93;83.53
50672;BME280;46021;55.882;37.654;2023-03-03T04:40:55;97879.56;;;-2.00;83.67
50672;BME280;46021;55.882;37.654;2023-03-03T04:43:24;97883.88;;;-2.06;83.97
50672;BME280;46021;55.882;37.654;2023-03-03T04:45:54;97887.22;;;-1.98;83.76
50672;BME280;46021;55.882;37.654;2023-03-03T04:48:22;97886.34;;;-1.99;83.72
50672;BME280;46021;55.882;37.654;2023-03-03T04:50:49;97878.66;;;-1.94;83.71
50672;BME280;46021;55.882;37.654;2023-03-03T04:53:16;97885.44;;;-1.93;83.71
50672;BME280;46021;55.882;37.654;2023-03-03T04:55:44;97876.03;;;-1.86;83.91
50672;BME280;46021;55.882;37.654;2023-03-03T04:58:11;97890.53;;;-1.88;83.63
50672;BME280;46021;55.882;37.654;2023-03-03T05:00:39;97883.72;;;-1.89;83.55
50672;BME280;46021;55.882;37.654;2023-03-03T05:03:11;97888.78;;;-1.86;83.46
50672;BME280;46021;55.882;37.654;2023-03-03T05:05:40;97881.09;;;-1.83;83.40
50672;BME280;46021;55.882;37.654;2023-03-03T05:08:07;97887.06;;;-1.86;83.18
50672;BME280;46021;55.882;37.654;2023-03-03T05:10:34;97884.66;;;-1.97;83.23
50672;BME280;46021;55.882;37.654;2023-03-03T05:13:02;97875.31;;;-1.99;83.63
50672;BME280;46021;55.882;37.654;2023-03-03T05:15:29;97880.31;;;-1.91;82.97
50672;BME280;46021;55.882;37.654;2023-03-03T05:17:56;97891.34;;;-1.86;83.37
50672;BME280;46021;55.882;37.654;2023-03-03T05:20:25;97893.00;;;-1.82;82.86
50672;BME280;46021;55.882;37.654;2023-03-03T05:22:52;97887.91;;;-1.85;82.85
50672;BME280;46021;55.882;37.654;2023-03-03T05:25:20;97891.41;;;-1.92;82.86
50672;BME280;46021;55.882;37.654;2023-03-03T05:27:47;97882.88;;;-1.91;82.26
50672;BME280;46021;55.882;37.654;2023-03-03T05:30:14;97886.25;;;-1.86;82.11
50672;BME280;46021;55.882;37.654;2023-03-03T05:32:41;97888.69;;;-1.77;81.70
50672;BME280;46021;55.882;37.654;2023-03-03T05:35:09;97891.28;;;-1.80;81.56
50672;BME280;46021;55.882;37.654;2023-03-03T05:37:37;97894.81;;;-1.90;81.65
50672;BME280;46021;55.882;37.654;2023-03-03T05:40:08;97892.16;;;-1.83;81.71
50672;BME280;46021;55.882;37.654;2023-03-03T05:42:36;97897.25;;;-1.81;81.40
50672;BME280;46021;55.882;37.654;2023-03-03T05:45:04;97891.28;;;-1.80;81.33
50672;BME280;46021;55.882;37.654;2023-03-03T05:47:31;97901.47;;;-1.80;81.01
50672;BME280;46021;55.882;37.654;2023-03-03T05:49:58;97897.28;;;-1.83;81.23
50672;BME280;46021;55.882;37.654;2023-03-03T05:52:25;97893.81;;;-1.79;81.02
50672;BME280;46021;55.882;37.654;2023-03-03T05:54:54;97898.00;;;-1.73;80.52
50672;BME280;46021;55.882;37.654;2023-03-03T05:57:21;97900.59;;;-1.76;80.56
50672;BME280;46021;55.882;37.654;2023-03-03T05:59:48;97887.06;;;-1.84;79.88
50672;BME280;46021;55.882;37.654;2023-03-03T06:02:15;97895.53;;;-1.81;80.08
50672;BME280;46021;55.882;37.654;2023-03-03T06:04:43;97898.09;;;-1.81;80.13
50672;BME280;46021;55.882;37.654;2023-03-03T06:07:10;97894.75;;;-1.87;80.16
50672;BME280;46021;55.882;37.654;2023-03-03T06:09:37;97898.09;;;-1.79;80.09
50672;BME280;46021;55.882;37.654;2023-03-03T06:12:06;97901.47;;;-1.80;79.81
50672;BME280;46021;55.882;37.654;2023-03-03T06:14:33;97902.28;;;-1.72;80.02
50672;BME280;46021;55.882;37.654;2023-03-03T06:17:00;97901.38;;;-1.71;80.22
50672;BME280;46021;55.882;37.654;2023-03-03T06:19:27;97908.28;;;-1.78;80.24
50672;BME280;46021;55.882;37.654;2023-03-03T06:21:55;97904.91;;;-1.81;80.22
50672;BME280;46021;55.882;37.654;2023-03-03T06:24:22;97904.84;;;-1.75;80.54
50672;BME280;46021;55.882;37.654;2023-03-03T06:27:09;97904.00;;;-1.75;80.05
50672;BME280;46021;55.882;37.654;2023-03-03T06:29:36;97903.84;;;-1.63;79.93
50672;BME280;46021;55.882;37.654;2023-03-03T06:32:04;97894.44;;;-1.60;79.42
50672;BME280;46021;55.882;37.654;2023-03-03T06:34:31;97903.03;;;-1.67;79.69
50672;BME280;46021;55.882;37.654;2023-03-03T06:36:58;97911.47;;;-1.59;79.45
50672;BME280;46021;55.882;37.654;2023-03-03T06:39:25;97906.38;;;-1.59;79.29
50672;BME280;46021;55.882;37.654;2023-03-03T06:41:53;97903.63;;;-1.45;78.82
50672;BME280;46021;55.882;37.654;2023-03-03T06:44:21;97901.81;;;-1.35;79.11
50672;BME280;46021;55.882;37.654;2023-03-03T06:46:48;97901.91;;;-1.41;78.83
50672;BME280;46021;55.882;37.654;2023-03-03T06:49:15;97901.88;;;-1.40;78.44
50672;BME280;46021;55.882;37.654;2023-03-03T06:51:42;97899.34;;;-1.41;77.71
50672;BME280;46021;55.882;37.654;2023-03-03T06:54:13;97907.84;;;-1.42;78.00
50672;BME280;46021;55.882;37.654;2023-03-03T06:56:41;97912.06;;;-1.38;77.74
50672;BME280;46021;55.882;37.654;2023-03-03T06:59:11;97892.59;;;-1.45;77.41
50672;BME280;46021;55.882;37.654;2023-03-03T07:01:41;97896.00;;;-1.49;77.12
50672;BME280;46021;55.882;37.654;2023-03-03T07:04:16;97898.44;;;-1.40;77.94
50672;BME280;46021;55.882;37.654;2023-03-03T07:06:46;97909.75;;;-1.57;76.93
50672;BME280;46021;55.882;37.654;2023-03-03T07:09:19;97906.38;;;-1.59;77.00
50672;BME280;46021;55.882;37.654;2023-03-03T07:11:47;97906.38;;;-1.60;76.91
50672;BME280;46021;55.882;37.654;2023-03-03T07:14:16;97915.88;;;-1.70;77.01
50672;BME280;46021;55.882;37.654;2023-03-03T07:16:45;97916.63;;;-1.65;76.57
50672;BME280;46021;55.882;37.654;2023-03-03T07:19:19;97917.41;;;-1.57;76.79
50672;BME280;46021;55.882;37.654;2023-03-03T07:21:50;97919.88;;;-1.47;77.08
50672;BME280;46021;55.882;37.654;2023-03-03T07:24:24;97910.41;;;-1.41;76.46
50672;BME280;46021;55.882;37.654;2023-03-03T07:26:55;97911.31;;;-1.46;76.25
50672;BME280;46021;55.882;37.654;2023-03-03T07:29:26;97924.06;;;-1.43;76.28
50672;BME280;46021;55.882;37.654;2023-03-03T07:31:57;97908.69;;;-1.40;77.00
50672;BME280;46021;55.882;37.654;2023-03-03T07:34:30;97914.69;;;-1.43;76.62
50672;BME280;46021;55.882;37.654;2023-03-03T07:37:05;97910.34;;;-1.36;77.30
50672;BME280;46021;55.882;37.654;2023-03-03T07:39:37;97918.75;;;-1.28;77.67
50672;BME280;46021;55.882;37.654;2023-03-03T07:42:19;97920.44;;;-1.27;77.72
50672;BME280;46021;55.882;37.654;2023-03-03T07:44:54;97929.72;;;-1.20;77.34
50672;BME280;46021;55.882;37.654;2023-03-03T07:47:25;97928.06;;;-1.24;77.74
50672;BME280;46021;55.882;37.654;2023-03-03T07:49:54;97930.63;;;-1.24;77.22
50672;BME280;46021;55.882;37.654;2023-03-03T07:52:28;97924.66;;;-1.23;78.05
50672;BME280;46021;55.882;37.654;2023-03-03T07:54:56;97928.06;;;-1.24;77.41
50672;BME280;46021;55.882;37.654;2023-03-03T07:57:26;97932.38;;;-1.26;77.30
50672;BME280;46021;55.882;37.654;2023-03-03T07:59:56;97931.41;;;-1.17;77.70
50672;BME280;46021;55.882;37.654;2023-03-03T08:02:42;97932.97;;;-1.08;78.25
50672;BME280;46021;55.882;37.654;2023-03-03T08:05:29;97932.88;;;-0.99;78.21
50672;BME280;46021;55.882;37.654;2023-03-03T08:08:30;97927.75;;;-0.99;76.99
50672;BME280;46021;55.882;37.654;2023-03-03T08:11:01;97934.69;;;-1.06;77.69
50672;BME280;46021;55.882;37.654;2023-03-03T08:13:36;97929.66;;;-1.13;77.98
50672;BME280;46021;55.882;37.654;2023-03-03T08:16:29;97925.41;;;-1.14;77.17
50672;BME280;46021;55.882;37.654;2023-03-03T08:19:04;97938.97;;;-1.09;77.99
50672;BME280;46021;55.882;37.654;2023-03-03T08:21:32;97941.47;;;-1.06;78.06
50672;BME280;46021;55.882;37.654;2023-03-03T08:24:01;97938.28;;;-1.21;77.60
50672;BME280;46021;55.882;37.654;2023-03-03T08:26:28;97939.84;;;-1.10;78.35
50672;BME280;46021;55.882;37.654;2023-03-03T08:28:55;97943.19;;;-1.05;78.89
50672;BME280;46021;55.882;37.654;2023-03-03T08:31:23;97936.38;;;-1.06;78.30
50672;BME280;46021;55.882;37.654;2023-03-03T08:33:50;97942.13;;;-0.90;79.76
50672;BME280;46021;55.882;37.654;2023-03-03T08:36:19;97941.94;;;-0.78;79.70
50672;BME280;46021;55.882;37.654;2023-03-03T08:38:46;97941.00;;;-0.72;79.19
50672;BME280;46021;55.882;37.654;2023-03-03T08:41:13;97948.69;;;-0.72;79.04
50672;BME280;46021;55.882;37.654;2023-03-03T08:43:41;97942.75;;;-0.74;77.80
50672;BME280;46021;55.882;37.654;2023-03-03T08:46:10;97943.91;;;-0.97;77.33
50672;BME280;46021;55.882;37.654;2023-03-03T08:48:37;97947.41;;;-1.03;77.31
50672;BME280;46021;55.882;37.654;2023-03-03T08:51:04;97938.88;;;-1.02;77.30
50672;BME280;46021;55.882;37.654;2023-03-03T08:53:33;97953.09;;;-0.84;76.99
50672;BME280;46021;55.882;37.654;2023-03-03T08:56:01;97945.38;;;-0.79;77.43
50672;BME280;46021;55.882;37.654;2023-03-03T08:58:28;97952.97;;;-0.74;77.70
50672;BME280;46021;55.882;37.654;2023-03-03T09:00:55;97958.06;;;-0.71;78.25
50672;BME280;46021;55.882;37.654;2023-03-03T09:03:23;97959.88;;;-0.80;77.31
50672;BME280;46021;55.882;37.654;2023-03-03T09:05:50;97958.22;;;-0.84;77.53
50672;BME280;46021;55.882;37.654;2023-03-03T09:08:17;97964.25;;;-0.86;77.82
50672;BME280;46021;55.882;37.654;2023-03-03T09:10:46;97963.44;;;-0.90;78.22
50672;BME280;46021;55.882;37.654;2023-03-03T09:13:14;97943.78;;;-0.88;77.43
50672;BME280;46021;55.882;37.654;2023-03-03T09:15:43;97948.69;;;-0.72;79.21
50672;BME280;46021;55.882;37.654;2023-03-03T09:18:14;97952.00;;;-0.64;78.37
50672;BME280;46021;55.882;37.654;2023-03-03T09:20:42;97951.75;;;-0.49;77.80
50672;BME280;46021;55.882;37.654;2023-03-03T09:23:34;97952.22;;;-0.25;78.71
50672;BME280;46021;55.882;37.654;2023-03-03T09:26:24;97946.00;;;-0.10;76.29
50672;BME280;46021;55.882;37.654;2023-03-03T09:28:54;97939.00;;;-0.01;77.42
50672;BME280;46021;55.882;37.654;2023-03-03T09:31:24;97958.38;;;0.16;78.72
50672;BME280;46021;55.882;37.654;2023-03-03T09:33:52;97951.66;;;0.09;76.80
50672;BME280;46021;55.882;37.654;2023-03-03T09:36:26;97943.44;;;-0.09;76.34
50672;BME280;46021;55.882;37.654;2023-03-03T09:38:54;97950.22;;;-0.08;77.80
50672;BME280;46021;55.882;37.654;2023-03-03T09:41:48;97954.75;;;-0.22;77.22
50672;BME280;46021;55.882;37.654;2023-03-03T09:44:35;97962.81;;;-0.47;76.72
50672;BME280;46021;55.882;37.654;2023-03-03T09:47:18;97962.06;;;-0.55;77.73
50672;BME280;46021;55.882;37.654;2023-03-03T09:49:56;97962.00;;;-0.50;78.49
50672;BME280;46021;55.882;37.654;2023-03-03T09:52:36;97968.03;;;-0.53;76.98
50672;BME280;46021;55.882;37.654;2023-03-03T09:55:18;97962.97;;;-0.56;77.45
50672;BME280;46021;55.882;37.654;2023-03-03T09:58:04;97968.22;;;-0.65;78.19
50672;BME280;46021;55.882;37.654;2023-03-03T10:00:45;97954.94;;;-0.93;77.45
50672;BME280;46021;55.882;37.654;2023-03-03T10:03:43;97957.25;;;-0.75;78.21
50672;BME280;46021;55.882;37.654;2023-03-03T10:06:21;97957.06;;;-0.63;79.47
50672;BME280;46021;55.882;37.654;2023-03-03T10:09:05;97958.69;;;-0.55;78.58
50672;BME280;46021;55.882;37.654;2023-03-03T10:11:39;97952.50;;;-0.44;79.33
50672;BME280;46021;55.882;37.654;2023-03-03T10:14:46;97945.44;;;-0.26;77.90
50672;BME280;46021;55.882;37.654;2023-03-03T10:17:32;97950.06;;;0.03;77.37
50672;BME280;46021;55.882;37.654;2023-03-03T10:20:13;97949.88;;;0.14;76.50
50672;BME280;46021;55.882;37.654;2023-03-03T10:22:49;97944.66;;;0.18;75.11
50672;BME280;46021;55.882;37.654;2023-03-03T10:25:27;97929.09;;;0.29;77.26
50672;BME280;46021;55.882;37.654;2023-03-03T10:28:04;97951.38;;;0.24;75.27
50672;BME280;46021;55.882;37.654;2023-03-03T10:30:47;97947.94;;;0.27;74.85
50672;BME280;46021;55.882;37.654;2023-03-03T10:33:22;97941.16;;;0.23;76.73
50672;BME280;46021;55.882;37.654;2023-03-03T10:36:06;97937.03;;;0.15;76.79
50672;BME280;46021;55.882;37.654;2023-03-03T10:38:49;97953.28;;;0.13;77.79
50672;BME280;46021;55.882;37.654;2023-03-03T10:41:39;97946.53;;;0.09;75.59
50672;BME280;46021;55.882;37.654;2023-03-03T10:44:30;97943.31;;;-0.03;75.49
50672;BME280;46021;55.882;37.654;2023-03-03T10:47:17;97944.25;;;-0.07;75.64
50672;BME280;46021;55.882;37.654;2023-03-03T10:49:56;97945.06;;;-0.05;74.97
50672;BME280;46021;55.882;37.654;2023-03-03T10:52:32;97946.22;;;-0.23;74.51
50672;BME280;46021;55.882;37.654;2023-03-03T10:55:37;97952.31;;;-0.28;74.58
50672;BME280;46021;55.882;37.654;2023-03-03T10:58:37;97949.06;;;-0.40;74.47
50672;BME280;46021;55.882;37.654;2023-03-03T11:01:16;97949.06;;;-0.40;76.51
50672;BME280;46021;55.882;37.654;2023-03-03T11:06:45;97961.50;;;-0.16;76.96
50672;BME280;46021;55.882;37.654;2023-03-03T11:09:28;97958.78;;;-0.09;77.44
50672;BME280;46021;55.882;37.654;2023-03-03T11:12:03;97953.44;;;0.04;76.68
50672;BME280;46021;55.882;37.654;2023-03-03T11:14:39;97954.84;;;0.23;77.50
50672;BME280;46021;55.882;37.654;2023-03-03T11:17:13;97947.84;;;0.31;74.98
50672;BME280;46021;55.882;37.654;2023-03-03T11:19:54;97958.53;;;0.53;75.31
50672;BME280;46021;55.882;37.654;2023-03-03T11:22:33;97948.44;;;0.46;73.46
50672;BME280;46021;55.882;37.654;2023-03-03T11:25:13;97959.19;;;0.63;73.86
50672;BME280;46021;55.882;37.654;2023-03-03T11:28:06;97952.00;;;0.37;72.99
50672;BME280;46021;55.882;37.654;2023-03-03T11:30:45;97958.03;;;0.34;73.32
50672;BME280;46021;55.882;37.654;2023-03-03T11:33:21;97957.91;;;0.41;73.26
50672;BME280;46021;55.882;37.654;2023-03-03T11:35:58;97955.63;;;0.27;74.25
50672;BME280;46021;55.882;37.654;2023-03-03T11:38:42;97968.50;;;0.22;72.61
50672;BME280;46021;55.882;37.654;2023-03-03T11:41:17;97966.06;;;0.14;73.92
50672;BME280;46021;55.882;37.654;2023-03-03T11:43:48;97955.09;;;0.08;74.73
50672;BME280;46021;55.882;37.654;2023-03-03T11:46:22;97971.81;;;0.29;74.82
50672;BME280;46021;55.882;37.654;2023-03-03T11:48:57;97954.41;;;0.45;75.38
50672;BME280;46021;55.882;37.654;2023-03-03T11:51:33;97955.53;;;0.31;74.26
50672;BME280;46021;55.882;37.654;2023-03-03T11:54:06;97957.91;;;0.41;74.86
50672;BME280;46021;55.882;37.654;2023-03-03T11:56:39;97967.16;;;0.49;73.09
50672;BME280;46021;55.882;37.654;2023-03-03T11:59:36;97962.28;;;0.35;72.85
50672;BME280;46021;55.882;37.654;2023-03-03T12:02:14;97976.22;;;0.21;71.33
50672;BME280;46021;55.882;37.654;2023-03-03T12:04:48;97976.84;;;0.33;73.44
50672;BME280;46021;55.882;37.654;2023-03-03T12:07:27;97975.81;;;0.44;73.64
50672;BME280;46021;55.882;37.654;2023-03-03T12:10:07;97972.84;;;0.65;74.95
50672;BME280;46021;55.882;37.654;2023-03-03T12:12:41;97962.81;;;0.53;74.57
50672;BME280;46021;55.882;37.654;2023-03-03T12:15:18;97961.25;;;0.46;74.25
50672;BME280;46021;55.882;37.654;2023-03-03T12:18:13;97970.78;;;0.37;72.25
50672;BME280;46021;55.882;37.654;2023-03-03T12:20:50;97964.09;;;0.30;73.09
50672;BME280;46021;55.882;37.654;2023-03-03T12:23:44;97966.91;;;0.15;71.45
50672;BME280;46021;55.882;37.654;2023-03-03T12:26:16;97967.63;;;0.25;72.95
50672;BME280;46021;55.882;37.654;2023-03-03T12:28:49;97968.34;;;0.31;72.74
50672;BME280;46021;55.882;37.654;2023-03-03T12:31:36;97960.75;;;0.27;71.49
50672;BME280;46021;55.882;37.654;2023-03-03T12:34:11;97956.34;;;0.33;70.95
50672;BME280;46021;55.882;37.654;2023-03-03T12:37:00;97957.16;;;0.35;72.12
50672;BME280;46021;55.882;37.654;2023-03-03T12:39:52;97968.63;;;0.16;70.21
50672;BME280;46021;55.882;37.654;2023-03-03T12:42:35;97963.00;;;-0.05;70.29
50672;BME280;46021;55.882;37.654;2023-03-03T12:45:16;97965.56;;;-0.05;70.78
50672;BME280;46021;55.882;37.654;2023-03-03T12:47:48;97967.59;;;-0.25;71.13
50672;BME280;46021;55.882;37.654;2023-03-03T12:50:29;97972.03;;;-0.36;71.45
50672;BME280;46021;55.882;37.654;2023-03-03T12:53:07;97971.13;;;-0.32;71.31
50672;BME280;46021;55.882;37.654;2023-03-03T12:55:47;97967.72;;;-0.34;70.89
50672;BME280;46021;55.882;37.654;2023-03-03T12:58:24;97967.66;;;-0.28;71.90
50672;BME280;46021;55.882;37.654;2023-03-03T13:01:05;97975.06;;;-0.11;70.80
50672;BME280;46021;55.882;37.654;2023-03-03T13:03:39;97968.81;;;0.04;71.47
50672;BME280;46021;55.882;37.654;2023-03-03T13:06:15;97962.94;;;0.00;70.42
50672;BME280;46021;55.882;37.654;2023-03-03T13:09:00;97977.50;;;-0.04;70.24
50672;BME280;46021;55.882;37.654;2023-03-03T13:11:43;97977.44;;;-0.01;71.12
50672;BME280;46021;55.882;37.654;2023-03-03T13:14:22;97979.03;;;0.07;70.43
50672;BME280;46021;55.882;37.654;2023-03-03T13:17:01;97982.28;;;0.15;71.31
50672;BME280;46021;55.882;37.654;2023-03-03T13:19:34;97982.41;;;0.09;68.61
50672;BME280;46021;55.882;37.654;2023-03-03T13:22:09;97979.13;;;0.01;68.41
50672;BME280;46021;55.882;37.654;2023-03-03T13:24:46;97972.59;;;-0.19;69.83